createdAt,value
2017-02-12T00:00:18.892Z,96.69
2017-02-12T00:01:24.988Z,96.12
2017-02-12T00:02:31.075Z,95.74
2017-02-12T00:03:37.162Z,94.79
2017-02-12T00:04:43.263Z,95.17
2017-02-12T00:05:49.353Z,95.45
2017-02-12T00:06:55.477Z,95.45
2017-02-12T00:08:01.565Z,96.21
2017-02-12T00:09:06.686Z,95.36
2017-02-12T00:10:11.823Z,95.07
2017-02-12T00:11:16.007Z,94.98
2017-02-12T00:12:21.107Z,95.64
2017-02-12T00:13:27.197Z,95.17
2017-02-12T00:14:33.282Z,95.17
2017-02-12T00:15:38.398Z,96.07
2017-02-12T00:16:44.486Z,96.07
2017-02-12T00:17:49.586Z,96.16
2017-02-12T00:18:52.799Z,95.74
2017-02-12T00:19:58.893Z,95.17
2017-02-12T00:21:04.021Z,94.7
2017-02-12T00:22:10.111Z,94.7
2017-02-12T00:23:15.231Z,94.79
2017-02-12T00:24:21.322Z,94.13
2017-02-12T00:25:26.438Z,93.75
2017-02-12T00:26:32.538Z,94.23
2017-02-12T00:27:35.727Z,94.32
2017-02-12T00:28:39.853Z,93.94
2017-02-12T00:29:45.943Z,94.13
2017-02-12T00:30:52.082Z,94.23
2017-02-12T00:31:54.226Z,94.23
2017-02-12T00:33:00.315Z,94.23
2017-02-12T00:34:06.411Z,94.7
2017-02-12T00:35:12.499Z,94.42
2017-02-12T00:36:17.619Z,94.7
2017-02-12T00:37:23.720Z,94.13
2017-02-12T00:38:27.852Z,94.23
2017-02-12T00:39:33.963Z,94.23
2017-02-12T00:40:38.194Z,94.42
2017-02-12T00:41:41.415Z,94.7
2017-02-12T00:42:45.567Z,94.13
2017-02-12T00:43:49.709Z,94.42
2017-02-12T00:44:55.794Z,94.98
2017-02-12T00:46:01.883Z,94.98
2017-02-12T00:47:07.971Z,94.89
2017-02-12T00:48:14.071Z,95.17
2017-02-12T00:49:18.250Z,94.51
2017-02-12T00:50:23.371Z,94.79
2017-02-12T00:51:29.473Z,95.31
2017-02-12T00:52:35.576Z,95.26
2017-02-12T00:53:41.672Z,95.26
2017-02-12T00:54:47.778Z,94.51
2017-02-12T00:55:53.858Z,94.6
2017-02-12T00:56:58.982Z,94.98
2017-02-12T00:58:04.112Z,95.07
2017-02-12T00:59:10.212Z,94.7
2017-02-12T01:00:15.313Z,95.07
2017-02-12T01:01:20.411Z,95.31
2017-02-12T01:02:24.541Z,95.07
2017-02-12T01:03:30.628Z,94.7
2017-02-12T01:04:36.720Z,95.12
2017-02-12T01:05:42.809Z,94.51
2017-02-12T01:06:49.022Z,94.42
2017-02-12T01:07:55.111Z,94.42
2017-02-12T01:09:01.209Z,94.56
2017-02-12T01:10:06.336Z,94.93
2017-02-12T01:11:11.471Z,94.79
2017-02-12T01:12:14.664Z,94.7
2017-02-12T01:13:17.833Z,94.37
2017-02-12T01:14:23.931Z,94.6
2017-02-12T01:15:29.051Z,94.6
2017-02-12T01:16:35.152Z,94.42
2017-02-12T01:17:40.270Z,94.7
2017-02-12T01:18:45.437Z,94.51
2017-02-12T01:19:49.595Z,94.65
2017-02-12T01:20:54.774Z,94.13
2017-02-12T01:22:00.888Z,94.27
2017-02-12T01:23:06.938Z,94.51
2017-02-12T01:24:11.135Z,94.27
2017-02-12T01:25:14.334Z,93.99
2017-02-12T01:26:19.494Z,94.23
2017-02-12T01:27:24.609Z,94.23
2017-02-12T01:28:28.737Z,94.32
2017-02-12T01:29:34.967Z,93.94
2017-02-12T01:30:40.026Z,94.13
2017-02-12T01:31:46.106Z,94.04
2017-02-12T01:32:50.256Z,93.94
2017-02-12T01:33:53.425Z,93.85
2017-02-12T01:34:57.557Z,94.04
2017-02-12T01:36:02.704Z,94.51
2017-02-12T01:37:08.780Z,94.42
2017-02-12T01:38:12.939Z,93.75
2017-02-12T01:39:17.096Z,94.13
2017-02-12T01:40:22.214Z,94.23
2017-02-12T01:41:26.344Z,94.32
2017-02-12T01:42:32.443Z,94.04
2017-02-12T01:43:38.541Z,94.23
2017-02-12T01:44:44.634Z,94.13
2017-02-12T01:45:50.749Z,93.66
2017-02-12T01:46:56.855Z,93.75
2017-02-12T01:48:02.951Z,93.94
2017-02-12T01:49:08.072Z,93.47
2017-02-12T01:50:13.189Z,93.75
2017-02-12T01:51:19.305Z,93.56
2017-02-12T01:52:24.375Z,93.75
2017-02-12T01:53:29.494Z,93.85
2017-02-12T01:54:35.581Z,93.66
2017-02-12T01:55:41.679Z,94.32
2017-02-12T01:56:46.799Z,94.32
2017-02-12T01:57:51.929Z,94.08
2017-02-12T01:58:58.028Z,94.04
2017-02-12T02:00:04.179Z,94.04
2017-02-12T02:01:09.307Z,94.04
2017-02-12T02:02:14.430Z,94.42
2017-02-12T02:03:18.560Z,94.18
2017-02-12T02:04:23.680Z,94.08
2017-02-12T02:05:29.762Z,94.42
2017-02-12T02:06:33.885Z,93.8
2017-02-12T02:07:38.036Z,93.8
2017-02-12T02:08:43.164Z,93.99
2017-02-12T02:09:49.258Z,94.18
2017-02-12T02:10:54.391Z,94.08
2017-02-12T02:12:00.500Z,93.7
2017-02-12T02:13:05.610Z,93.89
2017-02-12T02:14:09.786Z,93.89
2017-02-12T02:15:13.927Z,93.51
2017-02-12T02:16:19.053Z,93.89
2017-02-12T02:17:24.199Z,94.37
2017-02-12T02:18:29.318Z,94.08
2017-02-12T02:19:33.472Z,94.08
2017-02-12T02:20:39.569Z,93.89
2017-02-12T02:21:43.692Z,93.99
2017-02-12T02:22:49.794Z,93.61
2017-02-12T02:23:55.880Z,93.51
2017-02-12T02:25:01.000Z,93.51
2017-02-12T02:26:07.097Z,93.51
2017-02-12T02:27:10.288Z,93.51
2017-02-12T02:28:16.377Z,93.51
2017-02-12T02:29:21.498Z,93.23
2017-02-12T02:30:27.586Z,93.42
2017-02-12T02:31:33.712Z,93.13
2017-02-12T02:32:38.831Z,93.04
2017-02-12T02:33:43.945Z,92.85
2017-02-12T02:34:48.105Z,93.04
2017-02-12T02:35:54.202Z,92.94
2017-02-12T02:37:00.289Z,93.23
2017-02-12T02:38:06.375Z,92.66
2017-02-12T02:39:12.477Z,93.04
2017-02-12T02:40:17.591Z,93.04
2017-02-12T02:41:23.661Z,92.85
2017-02-12T02:42:29.742Z,93.23
2017-02-12T02:43:35.836Z,93.23
2017-02-12T02:44:39.962Z,93.04
2017-02-12T02:45:46.050Z,92.94
2017-02-12T02:46:52.150Z,93.13
2017-02-12T02:47:58.255Z,93.32
2017-02-12T02:49:04.348Z,92.94
2017-02-12T02:50:09.469Z,93.04
2017-02-12T02:51:14.594Z,93.04
2017-02-12T02:52:18.720Z,92.38
2017-02-12T02:53:24.811Z,92.38
2017-02-12T02:54:30.895Z,92.47
2017-02-12T02:55:36.017Z,92.57
2017-02-12T02:56:42.110Z,92.57
2017-02-12T02:57:48.203Z,92.76
2017-02-12T02:58:54.290Z,92.66
2017-02-12T02:59:59.392Z,92.57
2017-02-12T03:01:04.523Z,92.29
2017-02-12T03:02:10.603Z,92.57
2017-02-12T03:03:16.696Z,92.29
2017-02-12T03:04:22.795Z,92.38
2017-02-12T03:05:26.956Z,92.47
2017-02-12T03:06:33.053Z,92.19
2017-02-12T03:07:38.166Z,92.57
2017-02-12T03:08:44.308Z,92.57
2017-02-12T03:09:50.392Z,92.19
2017-02-12T03:10:54.520Z,92.1
2017-02-12T03:11:59.643Z,92.1
2017-02-12T03:13:05.726Z,91.81
2017-02-12T03:14:10.844Z,92
2017-02-12T03:15:16.929Z,91.81
2017-02-12T03:16:23.023Z,92.19
2017-02-12T03:17:28.142Z,91.81
2017-02-12T03:18:34.237Z,92
2017-02-12T03:19:39.356Z,92.1
2017-02-12T03:20:44.448Z,92.1
2017-02-12T03:21:48.588Z,91.91
2017-02-12T03:22:53.725Z,92.19
2017-02-12T03:23:58.810Z,91.53
2017-02-12T03:25:03.894Z,91.34
2017-02-12T03:26:08.073Z,91.53
2017-02-12T03:27:13.253Z,92
2017-02-12T03:28:18.375Z,91.91
2017-02-12T03:29:23.496Z,91.24
2017-02-12T03:30:27.704Z,91.81
2017-02-12T03:31:33.788Z,91.81
2017-02-12T03:32:38.908Z,91.43
2017-02-12T03:33:44.996Z,91.24
2017-02-12T03:34:50.124Z,91.15
2017-02-12T03:35:56.286Z,90.96
2017-02-12T03:37:00.415Z,91.24
2017-02-12T03:38:06.505Z,91.15
2017-02-12T03:39:12.597Z,91.24
2017-02-12T03:40:17.737Z,91.24
2017-02-12T03:41:21.868Z,91.43
2017-02-12T03:42:27.958Z,91.24
2017-02-12T03:43:34.049Z,90.96
2017-02-12T03:44:39.174Z,90.96
2017-02-12T03:45:43.314Z,91.34
2017-02-12T03:46:48.439Z,90.58
2017-02-12T03:47:54.537Z,90.68
2017-02-12T03:48:59.660Z,90.68
2017-02-12T03:50:04.771Z,90.3
2017-02-12T03:51:08.013Z,90.68
2017-02-12T03:52:14.104Z,90.3
2017-02-12T03:53:20.188Z,90.49
2017-02-12T03:54:26.288Z,90.58
2017-02-12T03:55:32.385Z,91.05
2017-02-12T03:56:37.514Z,91.15
2017-02-12T03:57:42.655Z,91.05
2017-02-12T03:58:48.750Z,91.34
2017-02-12T03:59:52.909Z,91.15
2017-02-12T04:00:57.977Z,91.05
2017-02-12T04:02:04.080Z,91.24
2017-02-12T04:03:10.163Z,91.05
2017-02-12T04:04:16.309Z,91.15
2017-02-12T04:05:21.430Z,91.05
2017-02-12T04:06:26.560Z,91.24
2017-02-12T04:07:30.721Z,91.34
2017-02-12T04:08:36.817Z,91.24
2017-02-12T04:09:42.951Z,90.96
2017-02-12T04:10:48.078Z,91.15
2017-02-12T04:11:52.209Z,91.24
2017-02-12T04:12:56.332Z,91.91
2017-02-12T04:14:00.466Z,91.81
2017-02-12T04:15:06.552Z,91.62
2017-02-12T04:16:11.673Z,92
2017-02-12T04:17:16.811Z,92
2017-02-12T04:18:21.910Z,92
2017-02-12T04:19:26.024Z,91.81
2017-02-12T04:20:31.153Z,91.72
2017-02-12T04:21:37.260Z,91.91
2017-02-12T04:22:42.426Z,92
2017-02-12T04:23:47.536Z,92
2017-02-12T04:24:52.653Z,91.91
2017-02-12T04:25:55.842Z,91.72
2017-02-12T04:27:00.965Z,91.72
2017-02-12T04:28:06.081Z,91.81
2017-02-12T04:29:11.203Z,92
2017-02-12T04:30:17.293Z,91.91
2017-02-12T04:31:23.382Z,92.19
2017-02-12T04:32:28.483Z,91.81
2017-02-12T04:33:32.639Z,92.1
2017-02-12T04:34:38.737Z,92.33
2017-02-12T04:35:44.832Z,92.57
2017-02-12T04:36:50.920Z,92.9
2017-02-12T04:37:57.005Z,93.04
2017-02-12T04:39:02.093Z,93.04
2017-02-12T04:40:08.185Z,92.71
2017-02-12T04:41:13.406Z,93.28
2017-02-12T04:42:16.559Z,93.28
2017-02-12T04:43:20.727Z,92.99
2017-02-12T04:44:26.850Z,93.09
2017-02-12T04:45:31.982Z,92.9
2017-02-12T04:46:37.102Z,93.47
2017-02-12T04:47:42.222Z,92.99
2017-02-12T04:48:46.371Z,93.47
2017-02-12T04:49:52.458Z,93.56
2017-02-12T04:50:57.584Z,93.66
2017-02-12T04:52:03.677Z,93.47
2017-02-12T04:53:09.760Z,93.75
2017-02-12T04:54:13.923Z,93.47
2017-02-12T04:55:20.015Z,93.75
2017-02-12T04:56:26.104Z,93.42
2017-02-12T04:57:30.267Z,93.84
2017-02-12T04:58:35.385Z,93.51
2017-02-12T04:59:41.482Z,93.7
2017-02-12T05:00:45.610Z,93.42
2017-02-12T05:01:51.709Z,93.7
2017-02-12T05:02:56.802Z,93.04
2017-02-12T05:04:01.938Z,93.13
2017-02-12T05:05:08.062Z,93.04
2017-02-12T05:06:14.128Z,92.94
2017-02-12T05:07:20.233Z,92.85
2017-02-12T05:08:25.358Z,93.04
2017-02-12T05:09:29.475Z,93.23
2017-02-12T05:10:35.673Z,92.76
2017-02-12T05:11:40.784Z,92.85
2017-02-12T05:12:45.873Z,92.57
2017-02-12T05:13:50.990Z,92.47
2017-02-12T05:14:57.091Z,92.47
2017-02-12T05:16:03.177Z,92.47
2017-02-12T05:17:08.294Z,92.57
2017-02-12T05:18:14.394Z,92.38
2017-02-12T05:19:18.553Z,92.1
2017-02-12T05:20:24.645Z,92.38
2017-02-12T05:21:28.761Z,92.1
2017-02-12T05:22:33.891Z,92.1
2017-02-12T05:23:39.979Z,92.85
2017-02-12T05:24:46.085Z,92.1
2017-02-12T05:25:51.177Z,92.38
2017-02-12T05:26:56.299Z,92
2017-02-12T05:28:00.456Z,92.38
2017-02-12T05:29:06.546Z,92.66
2017-02-12T05:30:12.635Z,92.19
2017-02-12T05:31:17.743Z,91.62
2017-02-12T05:32:21.984Z,92.19
2017-02-12T05:33:27.137Z,92.38
2017-02-12T05:34:30.296Z,92.19
2017-02-12T05:35:36.392Z,92
2017-02-12T05:36:40.523Z,92.19
2017-02-12T05:37:45.691Z,92.1
2017-02-12T05:38:50.747Z,91.62
2017-02-12T05:39:56.841Z,91.62
2017-02-12T05:41:03.032Z,92.38
2017-02-12T05:42:09.115Z,91.86
2017-02-12T05:43:14.241Z,91.39
2017-02-12T05:44:20.328Z,90.72
2017-02-12T05:45:24.458Z,91.29
2017-02-12T05:46:30.559Z,91.1
2017-02-12T05:47:35.660Z,91.01
2017-02-12T05:48:41.752Z,91.1
2017-02-12T05:49:47.837Z,90.53
2017-02-12T05:50:53.946Z,90.06
2017-02-12T05:52:00.032Z,90.06
2017-02-12T05:53:06.124Z,89.97
2017-02-12T05:54:12.219Z,89.69
2017-02-12T05:55:18.324Z,89.97
2017-02-12T05:56:21.477Z,90.16
2017-02-12T05:57:27.562Z,89.78
2017-02-12T05:58:31.732Z,89.97
2017-02-12T05:59:37.917Z,90.06
2017-02-12T06:00:41.996Z,89.69
2017-02-12T06:01:48.083Z,89.97
2017-02-12T06:02:51.239Z,89.78
2017-02-12T06:03:53.547Z,90.06
2017-02-12T06:04:59.639Z,89.97
2017-02-12T06:06:04.760Z,89.97
2017-02-12T06:07:10.856Z,90.34
2017-02-12T06:08:16.050Z,90.16
2017-02-12T06:09:21.163Z,90.16
2017-02-12T06:10:26.281Z,90.16
2017-02-12T06:11:32.368Z,90.16
2017-02-12T06:12:37.495Z,90.25
2017-02-12T06:13:41.610Z,90.16
2017-02-12T06:14:46.721Z,90.34
2017-02-12T06:15:51.858Z,90.49
2017-02-12T06:16:56.021Z,91.05
2017-02-12T06:18:01.129Z,91.2
2017-02-12T06:19:04.286Z,91.15
2017-02-12T06:20:09.410Z,91.24
2017-02-12T06:21:14.507Z,91.15
2017-02-12T06:22:19.628Z,91.53
2017-02-12T06:23:25.714Z,91.15
2017-02-12T06:24:29.932Z,91.15
2017-02-12T06:25:35.022Z,91.43
2017-02-12T06:26:41.113Z,91.43
2017-02-12T06:27:46.229Z,91.15
2017-02-12T06:28:51.355Z,91.53
2017-02-12T06:29:56.478Z,91.43
2017-02-12T06:31:02.586Z,90.77
2017-02-12T06:32:07.704Z,91.62
2017-02-12T06:33:13.794Z,90.96
2017-02-12T06:34:19.909Z,91.05
2017-02-12T06:35:25.991Z,90.96
2017-02-12T06:36:32.087Z,91.15
2017-02-12T06:37:37.306Z,90.96
2017-02-12T06:38:43.403Z,90.96
2017-02-12T06:39:48.530Z,91.05
2017-02-12T06:40:53.627Z,90.96
2017-02-12T06:41:59.717Z,91.24
2017-02-12T06:43:02.901Z,90.68
2017-02-12T06:44:08.990Z,90.96
2017-02-12T06:45:13.147Z,91.2
2017-02-12T06:46:18.251Z,90.49
2017-02-12T06:47:23.427Z,90.34
2017-02-12T06:48:29.525Z,90.72
2017-02-12T06:49:33.693Z,90.77
2017-02-12T06:50:39.782Z,90.16
2017-02-12T06:51:42.939Z,90.06
2017-02-12T06:52:49.028Z,90.39
2017-02-12T06:53:55.142Z,90.16
2017-02-12T06:55:00.244Z,90.06
2017-02-12T06:56:06.336Z,90.11
2017-02-12T06:57:11.449Z,90.53
2017-02-12T06:58:17.537Z,90.39
2017-02-12T06:59:23.630Z,90.2
2017-02-12T07:00:29.772Z,89.97
2017-02-12T07:01:34.900Z,90.3
2017-02-12T07:02:40.997Z,90.11
2017-02-12T07:03:46.123Z,90.11
2017-02-12T07:04:51.243Z,90.16
2017-02-12T07:05:56.369Z,89.97
2017-02-12T07:07:01.524Z,89.97
2017-02-12T07:08:07.594Z,89.78
2017-02-12T07:09:13.691Z,89.87
2017-02-12T07:10:18.812Z,90.01
2017-02-12T07:11:23.935Z,90.11
2017-02-12T07:12:28.085Z,90.3
2017-02-12T07:13:33.219Z,90.2
2017-02-12T07:14:39.305Z,90.25
2017-02-12T07:15:44.425Z,90.06
2017-02-12T07:16:50.528Z,90.01
2017-02-12T07:17:56.611Z,89.83
2017-02-12T07:19:01.732Z,90.11
2017-02-12T07:20:07.829Z,89.83
2017-02-12T07:21:11.988Z,90.01
2017-02-12T07:22:17.109Z,90.2
2017-02-12T07:23:23.210Z,89.87
2017-02-12T07:24:27.331Z,89.97
2017-02-12T07:25:32.450Z,90.25
2017-02-12T07:26:37.579Z,89.5
2017-02-12T07:27:42.696Z,89.5
2017-02-12T07:28:47.819Z,89.4
2017-02-12T07:29:53.918Z,89.31
2017-02-12T07:31:00.217Z,89.4
2017-02-12T07:32:06.372Z,89.4
2017-02-12T07:33:12.453Z,88.93
2017-02-12T07:34:18.553Z,89.02
2017-02-12T07:35:23.675Z,89.21
2017-02-12T07:36:29.790Z,89.21
2017-02-12T07:37:34.868Z,89.31
2017-02-12T07:38:40.960Z,89.21
2017-02-12T07:39:47.059Z,89.31
2017-02-12T07:40:52.183Z,89.12
2017-02-12T07:41:57.283Z,88.93
2017-02-12T07:43:03.388Z,88.83
2017-02-12T07:44:07.613Z,88.74
2017-02-12T07:45:10.784Z,88.93
2017-02-12T07:46:14.942Z,88.74
2017-02-12T07:47:20.071Z,88.93
2017-02-12T07:48:24.210Z,88.74
2017-02-12T07:49:29.334Z,88.93
2017-02-12T07:50:33.456Z,88.83
2017-02-12T07:51:39.558Z,88.83
2017-02-12T07:52:44.667Z,88.26
2017-02-12T07:53:47.826Z,88.17
2017-02-12T07:54:53.919Z,87.41
2017-02-12T07:55:58.070Z,87.7
2017-02-12T07:57:04.178Z,87.41
2017-02-12T07:58:10.263Z,87.7
2017-02-12T07:59:16.354Z,87.88
2017-02-12T08:00:22.451Z,87.6
2017-02-12T08:01:28.550Z,87.32
2017-02-12T08:02:34.633Z,86.94
2017-02-12T08:03:40.726Z,86.85
2017-02-12T08:04:44.889Z,86.47
2017-02-12T08:05:50.991Z,86.85
2017-02-12T08:06:57.078Z,87.04
2017-02-12T08:08:02.229Z,86.85
2017-02-12T08:09:08.305Z,86.09
2017-02-12T08:10:13.433Z,86.98
2017-02-12T08:11:18.561Z,86.51
2017-02-12T08:12:23.684Z,86.41
2017-02-12T08:13:29.773Z,85.85
2017-02-12T08:14:34.901Z,85.94
2017-02-12T08:15:40.041Z,85.38
2017-02-12T08:16:45.160Z,85
2017-02-12T08:17:50.255Z,85
2017-02-12T08:18:54.441Z,84.81
2017-02-12T08:19:57.594Z,84.71
2017-02-12T08:21:02.706Z,84.05
2017-02-12T08:22:08.793Z,83.95
2017-02-12T08:23:14.896Z,83.48
2017-02-12T08:24:19.053Z,83.67
2017-02-12T08:25:24.146Z,83.67
2017-02-12T08:26:30.262Z,83.01
2017-02-12T08:27:35.354Z,83.1
2017-02-12T08:28:41.521Z,82.82
2017-02-12T08:29:45.629Z,82.63
2017-02-12T08:30:50.768Z,83.2
2017-02-12T08:31:56.860Z,82.53
2017-02-12T08:33:02.952Z,83.2
2017-02-12T08:34:09.038Z,82.63
2017-02-12T08:35:15.138Z,83.01
2017-02-12T08:36:21.253Z,83.1
2017-02-12T08:37:27.479Z,83.01
2017-02-12T08:38:33.554Z,82.91
2017-02-12T08:39:38.681Z,82.91
2017-02-12T08:40:43.804Z,83.67
2017-02-12T08:41:49.890Z,83.58
2017-02-12T08:42:54.980Z,83.67
2017-02-12T08:43:59.111Z,83.67
2017-02-12T08:45:04.205Z,83.86
2017-02-12T08:46:09.338Z,83.39
2017-02-12T08:47:14.480Z,83.2
2017-02-12T08:48:19.597Z,83.39
2017-02-12T08:49:24.072Z,83.76
2017-02-12T08:50:29.928Z,83.48
2017-02-12T08:51:36.013Z,83.1
2017-02-12T08:52:42.107Z,82.44
2017-02-12T08:53:47.245Z,83.29
2017-02-12T08:54:52.466Z,82.91
2017-02-12T08:55:57.703Z,83.01
2017-02-12T08:57:01.860Z,82.44
2017-02-12T08:58:06.951Z,82.72
2017-02-12T08:59:11.102Z,82.72
2017-02-12T09:00:14.291Z,82.25
2017-02-12T09:01:19.418Z,82.34
2017-02-12T09:02:25.498Z,82.63
2017-02-12T09:03:29.657Z,83.1
2017-02-12T09:04:34.784Z,82.63
2017-02-12T09:05:40.875Z,82.53
2017-02-12T09:06:46.960Z,82.63
2017-02-12T09:07:51.108Z,83.2
2017-02-12T09:08:57.203Z,83.1
2017-02-12T09:10:01.367Z,83.2
2017-02-12T09:11:07.462Z,82.91
2017-02-12T09:12:13.559Z,82.72
2017-02-12T09:13:19.704Z,83.1
2017-02-12T09:14:25.803Z,82.82
2017-02-12T09:15:30.926Z,82.91
2017-02-12T09:16:36.037Z,83.2
2017-02-12T09:17:41.156Z,82.34
2017-02-12T09:18:47.249Z,82.82
2017-02-12T09:19:52.384Z,82.06
2017-02-12T09:20:57.502Z,82.25
2017-02-12T09:22:00.687Z,82.82
2017-02-12T09:23:03.840Z,82.72
2017-02-12T09:24:08.959Z,83.1
2017-02-12T09:25:13.119Z,83.01
2017-02-12T09:26:18.237Z,82.44
2017-02-12T09:27:23.364Z,82.82
2017-02-12T09:28:29.460Z,82.72
2017-02-12T09:29:35.541Z,82.53
2017-02-12T09:30:41.646Z,82.01
2017-02-12T09:31:45.790Z,82.67
2017-02-12T09:32:50.892Z,82.2
2017-02-12T09:33:56.992Z,80.68
2017-02-12T09:35:03.093Z,80.4
2017-02-12T09:36:08.186Z,80.87
2017-02-12T09:37:13.391Z,80.4
2017-02-12T09:38:19.467Z,80.77
2017-02-12T09:39:24.601Z,81.06
2017-02-12T09:40:28.777Z,80.68
2017-02-12T09:41:33.909Z,80.58
2017-02-12T09:42:40.022Z,80.87
2017-02-12T09:43:44.281Z,80.96
2017-02-12T09:44:49.422Z,81.06
2017-02-12T09:45:52.592Z,80.77
2017-02-12T09:46:57.725Z,80.58
2017-02-12T09:48:02.902Z,80.96
2017-02-12T09:49:08.996Z,80.87
2017-02-12T09:50:14.121Z,80.21
2017-02-12T09:51:19.248Z,79.83
2017-02-12T09:52:23.411Z,80.21
2017-02-12T09:53:29.491Z,79.64
2017-02-12T09:54:34.623Z,78.98
2017-02-12T09:55:40.746Z,79.74
2017-02-12T09:56:46.832Z,79.83
2017-02-12T09:57:50.044Z,79.36
2017-02-12T09:58:55.249Z,79.58
2017-02-12T10:00:00.377Z,79.49
2017-02-12T10:01:06.469Z,79.39
2017-02-12T10:02:12.688Z,78.83
2017-02-12T10:03:18.766Z,78.92
2017-02-12T10:04:24.867Z,78.26
2017-02-12T10:05:28.997Z,77.97
2017-02-12T10:06:35.090Z,78.73
2017-02-12T10:07:41.188Z,77.97
2017-02-12T10:08:47.291Z,77.88
2017-02-12T10:09:52.399Z,77.88
2017-02-12T10:10:58.533Z,77.88
2017-02-12T10:12:04.628Z,78.45
2017-02-12T10:13:10.717Z,78.92
2017-02-12T10:14:14.845Z,78.64
2017-02-12T10:15:19.945Z,78.45
2017-02-12T10:16:26.097Z,78.45
2017-02-12T10:17:31.176Z,78.35
2017-02-12T10:18:35.306Z,78.45
2017-02-12T10:19:37.504Z,77.69
2017-02-12T10:20:41.670Z,78.26
2017-02-12T10:21:46.803Z,78.35
2017-02-12T10:22:50.959Z,78.07
2017-02-12T10:23:57.063Z,78.16
2017-02-12T10:25:02.161Z,78.92
2017-02-12T10:26:08.259Z,78.07
2017-02-12T10:27:12.430Z,78.16
2017-02-12T10:28:18.554Z,78.54
2017-02-12T10:29:23.635Z,78.16
2017-02-12T10:30:29.730Z,77.22
2017-02-12T10:31:34.851Z,77.03
2017-02-12T10:32:40.963Z,76.12
2017-02-12T10:33:46.115Z,75.45
2017-02-12T10:34:51.309Z,74.88
2017-02-12T10:35:55.378Z,74.22
2017-02-12T10:37:00.513Z,73.88
2017-02-12T10:38:06.618Z,73.12
2017-02-12T10:39:12.713Z,72.27
2017-02-12T10:40:17.850Z,71.7
2017-02-12T10:41:22.006Z,72.17
2017-02-12T10:42:27.157Z,71.8
2017-02-12T10:43:32.282Z,71.6
2017-02-12T10:44:37.411Z,71.89
2017-02-12T10:45:42.541Z,71.6
2017-02-12T10:46:48.649Z,71.13
2017-02-12T10:47:54.750Z,70.18
2017-02-12T10:49:00.862Z,69.42
2017-02-12T10:50:06.006Z,69.46
2017-02-12T10:51:10.137Z,69.61
2017-02-12T10:52:16.244Z,69.9
2017-02-12T10:53:22.340Z,70.12
2017-02-12T10:54:26.518Z,69.27
2017-02-12T10:55:30.678Z,68.6
2017-02-12T10:56:35.816Z,67.46
2017-02-12T10:57:41.918Z,67.56
2017-02-12T10:58:48.026Z,67.65
2017-02-12T10:59:54.108Z,68.98
2017-02-12T11:00:59.251Z,68.79
2017-02-12T11:02:04.380Z,68.32
2017-02-12T11:03:09.509Z,67.59
2017-02-12T11:04:14.619Z,67.02
2017-02-12T11:05:20.747Z,66.39
2017-02-12T11:06:26.825Z,64.37
2017-02-12T11:07:31.959Z,64.46
2017-02-12T11:08:38.037Z,65.6
2017-02-12T11:09:43.175Z,66.71
2017-02-12T11:10:48.316Z,67.65
2017-02-12T11:11:54.411Z,67.65
2017-02-12T11:12:58.572Z,67.37
2017-02-12T11:14:04.668Z,67.27
2017-02-12T11:15:09.802Z,67.08
2017-02-12T11:16:15.897Z,67.18
2017-02-12T11:17:21.030Z,67.75
2017-02-12T11:18:27.256Z,67.81
2017-02-12T11:19:33.360Z,68.76
2017-02-12T11:20:39.465Z,69.99
2017-02-12T11:21:44.596Z,69.9
2017-02-12T11:22:50.696Z,70.56
2017-02-12T11:23:56.816Z,70.94
2017-02-12T11:25:01.926Z,71.32
2017-02-12T11:26:07.055Z,71.89
2017-02-12T11:27:13.146Z,71.85
2017-02-12T11:28:16.360Z,71.89
2017-02-12T11:29:21.484Z,72.27
2017-02-12T11:30:25.637Z,72.08
2017-02-12T11:31:31.740Z,71.6
2017-02-12T11:32:37.836Z,71.32
2017-02-12T11:33:43.937Z,70.84
2017-02-12T11:34:48.067Z,71.41
2017-02-12T11:35:53.193Z,71.51
2017-02-12T11:36:57.362Z,71.76
2017-02-12T11:38:01.493Z,71.66
2017-02-12T11:39:06.626Z,72.04
2017-02-12T11:40:12.737Z,71.85
2017-02-12T11:41:16.889Z,71.7
2017-02-12T11:42:22.979Z,71.6
2017-02-12T11:43:28.109Z,71.98
2017-02-12T11:44:34.203Z,70.84
2017-02-12T11:45:40.317Z,71.13
2017-02-12T11:46:46.437Z,71.66
2017-02-12T11:47:51.579Z,71.66
2017-02-12T11:48:56.724Z,71.95
2017-02-12T11:50:02.815Z,71.66
2017-02-12T11:51:08.910Z,72.33
2017-02-12T11:52:15.010Z,72.04
2017-02-12T11:53:20.133Z,72.33
2017-02-12T11:54:24.292Z,72.08
2017-02-12T11:55:28.443Z,71.57
2017-02-12T11:56:34.523Z,72.04
2017-02-12T11:57:39.651Z,72.23
2017-02-12T11:58:44.748Z,72.99
2017-02-12T11:59:50.848Z,72.71
2017-02-12T12:00:55.012Z,72.61
2017-02-12T12:02:00.134Z,72.8
2017-02-12T12:03:05.259Z,72.52
2017-02-12T12:04:10.386Z,72.89
2017-02-12T12:05:16.476Z,73.37
2017-02-12T12:06:22.565Z,73.27
2017-02-12T12:07:28.671Z,73.37
2017-02-12T12:08:33.767Z,73.46
2017-02-12T12:09:39.867Z,73.27
2017-02-12T12:10:44.968Z,73.37
2017-02-12T12:11:51.060Z,73.18
2017-02-12T12:12:57.163Z,73.56
2017-02-12T12:14:02.285Z,73.75
2017-02-12T12:15:08.391Z,73.65
2017-02-12T12:16:13.516Z,73.18
2017-02-12T12:17:18.640Z,73.08
2017-02-12T12:18:22.809Z,72.99
2017-02-12T12:19:25.984Z,73.65
2017-02-12T12:20:31.103Z,72.89
2017-02-12T12:21:36.223Z,72.99
2017-02-12T12:22:42.350Z,73.18
2017-02-12T12:23:48.432Z,73.37
2017-02-12T12:24:52.560Z,73.65
2017-02-12T12:25:58.656Z,72.99
2017-02-12T12:27:03.839Z,73.27
2017-02-12T12:28:09.902Z,73.08
2017-02-12T12:29:14.062Z,73.27
2017-02-12T12:30:19.195Z,73.37
2017-02-12T12:31:24.294Z,73.27
2017-02-12T12:32:30.405Z,73.75
2017-02-12T12:33:35.511Z,73.84
2017-02-12T12:34:39.656Z,73.37
2017-02-12T12:35:42.844Z,72.99
2017-02-12T12:36:48.959Z,72.99
2017-02-12T12:37:55.051Z,73.08
2017-02-12T12:39:00.187Z,73.37
2017-02-12T12:40:06.284Z,73.56
2017-02-12T12:41:11.502Z,73.65
2017-02-12T12:42:17.601Z,73.08
2017-02-12T12:43:23.704Z,73.37
2017-02-12T12:44:28.849Z,73.27
2017-02-12T12:45:33.984Z,73.18
2017-02-12T12:46:40.082Z,73.46
2017-02-12T12:47:45.212Z,73.27
2017-02-12T12:48:49.354Z,73.75
2017-02-12T12:49:55.459Z,73.84
2017-02-12T12:51:01.552Z,73.56
2017-02-12T12:52:07.657Z,73.56
2017-02-12T12:53:13.754Z,73.08
2017-02-12T12:54:18.895Z,73.18
2017-02-12T12:55:24.007Z,73.27
2017-02-12T12:56:30.106Z,73.75
2017-02-12T12:57:36.205Z,74.03
2017-02-12T12:58:41.333Z,73.94
2017-02-12T12:59:46.477Z,73.84
2017-02-12T13:00:51.693Z,73.08
2017-02-12T13:01:57.790Z,72.99
2017-02-12T13:03:02.912Z,72.52
2017-02-12T13:04:08.011Z,72.14
2017-02-12T13:05:14.210Z,72.23
2017-02-12T13:06:20.267Z,72.52
2017-02-12T13:07:26.372Z,72.52
2017-02-12T13:08:32.472Z,72.52
2017-02-12T13:09:37.624Z,72.33
2017-02-12T13:10:43.692Z,72.42
2017-02-12T13:11:48.815Z,72.23
2017-02-12T13:12:52.987Z,71.85
2017-02-12T13:13:58.191Z,71.95
2017-02-12T13:15:04.296Z,71.85
2017-02-12T13:16:10.386Z,71.98
2017-02-12T13:17:14.517Z,71.95
2017-02-12T13:18:19.639Z,71.76
2017-02-12T13:19:24.761Z,71.95
2017-02-12T13:20:27.964Z,71.85
2017-02-12T13:21:33.094Z,71.57
2017-02-12T13:22:39.203Z,72.33
2017-02-12T13:23:45.431Z,72.04
2017-02-12T13:24:51.496Z,72.14
2017-02-12T13:25:57.596Z,72.33
2017-02-12T13:27:03.706Z,72.61
2017-02-12T13:28:07.959Z,72.71
2017-02-12T13:29:14.299Z,72.61
2017-02-12T13:30:19.503Z,73.18
2017-02-12T13:31:25.545Z,73.08
2017-02-12T13:32:31.648Z,73.46
2017-02-12T13:33:36.840Z,73.08
2017-02-12T13:34:42.937Z,73.27
2017-02-12T13:35:49.025Z,73.18
2017-02-12T13:36:55.127Z,72.71
2017-02-12T13:38:01.339Z,72.89
2017-02-12T13:39:06.461Z,72.52
2017-02-12T13:40:12.568Z,72.42
2017-02-12T13:41:18.668Z,72.52
2017-02-12T13:42:22.830Z,72.71
2017-02-12T13:43:27.960Z,72.8
2017-02-12T13:44:33.096Z,73.37
2017-02-12T13:45:39.195Z,73.08
2017-02-12T13:46:44.291Z,73.27
2017-02-12T13:47:49.413Z,73.08
2017-02-12T13:48:54.536Z,72.99
2017-02-12T13:49:59.656Z,73.56
2017-02-12T13:51:05.752Z,73.84
2017-02-12T13:52:11.850Z,73.84
2017-02-12T13:53:16.980Z,73.37
2017-02-12T13:54:22.117Z,73.27
2017-02-12T13:55:27.228Z,73.56
2017-02-12T13:56:33.354Z,73.56
2017-02-12T13:58:45.551Z,73.65
2017-02-12T13:59:49.695Z,73.84
2017-02-12T14:00:55.801Z,73.75
2017-02-12T14:01:59.001Z,73.56
2017-02-12T14:03:04.099Z,73.46
2017-02-12T14:04:10.192Z,73.56
2017-02-12T14:05:14.384Z,73.27
2017-02-12T14:06:19.506Z,73.56